Terminal Aerodrome Forecast
Issued by NWS

Home | Current Version | Previous Version | Text Only | Print | Product List | Glossary On
Versions: 1 2 3 4 5 6 7 8 9 10 11 12 13 14 15 16 17 18 19
000
FTUS45 KBOU 250304 AAC
TAFAPA
TAF AMD
KAPA 250304Z 2503/2524 34010KT P6SM SCT110
     FM250400 03011KT P6SM BKN090
     FM250800 12009KT P6SM BKN080
     FM251600 09009KT P6SM SCT070=

USA.gov is the U.S. government's official web portal to all federal, state and local government web resources and services.